Time;durP1;ratioP1;P1;durP2;ratioP2;P2;SDS_P1;SDS_P2;PMS_P1;PMS_P2;Temp;Humidity;BMP_temperature;BMP_pressure;BME280_temperature;BME280_humidity;BME280_pressure;Samples;Min_cycle;Max_cycle;Signal;HPM_P1;HPM_P2
2022/10/06 00:00:55;;;;;;;10.17;4.83;;;;;;;;;;742626;187;917299;-65
2022/10/06 00:03:22;;;;;;;7.70;4.80;;;;;;;;;;751639;184;812285;-63
2022/10/06 00:05:48;;;;;;;9.80;4.30;;;;;;;;;;743623;186;915084;-65
2022/10/06 00:08:13;;;;;;;7.23;5.30;;;;;;;;;;746189;186;914031;-70
2022/10/06 00:10:39;;;;;;;7.67;4.93;;;;;;;;;;745395;187;941748;-69
2022/10/06 00:13:05;;;;;;;8.93;5.60;;;;;;;;;;743017;186;935395;-70
2022/10/06 00:15:31;;;;;;;7.67;5.00;;;;;;;;;;742150;187;915469;-65
2022/10/06 00:17:57;;;;;;;6.20;4.20;;;;;;;;;;743556;186;818605;-65
2022/10/06 00:20:23;;;;;;;11.50;6.10;;;;;;;;;;749237;184;626806;-69
2022/10/06 00:22:48;;;;;;;7.73;5.30;;;;;;;;;;742653;186;914656;-70
2022/10/06 00:25:16;;;;;;;5.57;4.83;;;;;;;;;;731331;186;914780;-69
2022/10/06 00:27:41;;;;;;;8.50;4.80;;;;;;;;;;746076;185;794915;-69
2022/10/06 00:30:07;;;;;;;6.60;4.33;;;;;;;;;;743536;186;914644;-64
2022/10/06 00:32:33;;;;;;;9.73;5.83;;;;;;;;;;743087;186;909506;-69
2022/10/06 00:34:59;;;;;;;11.30;5.73;;;;;;;;;;746036;187;915822;-70
2022/10/06 00:37:25;;;;;;;7.27;4.87;;;;;;;;;;742530;186;924244;-64
2022/10/06 00:39:51;;;;;;;9.70;5.43;;;;;;;;;;740838;187;937077;-64
2022/10/06 00:42:27;;;;;;;8.70;5.13;;;;;;;;;;744218;185;924885;-70
2022/10/06 00:44:52;;;;;;;10.82;5.70;;;;;;;;;;749608;185;915827;-71
2022/10/06 00:47:18;;;;;;;5.77;4.33;;;;;;;;;;745078;186;916177;-63
2022/10/06 00:49:44;;;;;;;9.90;5.17;;;;;;;;;;743802;184;868444;-70
2022/10/06 00:52:10;;;;;;;12.65;6.45;;;;;;;;;;746385;184;879351;-64
2022/10/06 00:54:36;;;;;;;8.57;5.47;;;;;;;;;;747469;186;918735;-65
2022/10/06 00:57:02;;;;;;;12.87;6.90;;;;;;;;;;744903;186;919700;-70
2022/10/06 00:59:27;;;;;;;7.53;5.30;;;;;;;;;;743241;186;917059;-69
2022/10/06 01:01:53;;;;;;;12.90;5.80;;;;;;;;;;748532;185;919586;-64
2022/10/06 01:04:19;;;;;;;7.00;5.20;;;;;;;;;;741736;184;919671;-64
2022/10/06 01:06:45;;;;;;;6.43;5.40;;;;;;;;;;741701;187;919343;-63
2022/10/06 01:09:11;;;;;;;12.50;4.60;;;;;;;;;;749163;187;918134;-65
2022/10/06 01:11:37;;;;;;;8.97;5.80;;;;;;;;;;742647;187;918854;-70
2022/10/06 01:14:03;;;;;;;8.02;6.25;;;;;;;;;;744800;186;918812;-64
2022/10/06 01:16:28;;;;;;;10.53;7.60;;;;;;;;;;745735;186;920559;-69
2022/10/06 01:18:54;;;;;;;9.40;5.67;;;;;;;;;;740403;185;935011;-65
2022/10/06 01:21:35;;;;;;;8.77;5.93;;;;;;;;;;743492;186;921991;-65
2022/10/06 01:24:01;;;;;;;8.13;5.30;;;;;;;;;;741410;187;919379;-64
2022/10/06 01:26:27;;;;;;;8.23;5.63;;;;;;;;;;734466;187;917430;-69
2022/10/06 01:28:52;;;;;;;9.60;5.40;;;;;;;;;;746583;187;918749;-70
2022/10/06 01:31:20;;;;;;;8.63;5.43;;;;;;;;;;745921;187;918401;-70
2022/10/06 01:33:45;;;;;;;9.38;4.93;;;;;;;;;;742547;187;918649;-69
2022/10/06 01:36:11;;;;;;;15.20;6.00;;;;;;;;;;749434;187;919140;-64
2022/10/06 01:38:37;;;;;;;8.90;6.50;;;;;;;;;;743758;187;917279;-64
2022/10/06 01:41:03;;;;;;;9.57;6.00;;;;;;;;;;744116;186;875476;-65
2022/10/06 01:43:29;;;;;;;9.03;5.10;;;;;;;;;;747753;187;916664;-65
2022/10/06 01:45:55;;;;;;;9.83;6.43;;;;;;;;;;742706;187;917453;-64
2022/10/06 01:48:20;;;;;;;7.70;4.60;;;;;;;;;;741139;187;918850;-70
2022/10/06 01:50:46;;;;;;;7.43;4.80;;;;;;;;;;742114;187;919590;-64
2022/10/06 01:53:12;;;;;;;14.40;6.53;;;;;;;;;;747009;185;919111;-63
2022/10/06 01:55:38;;;;;;;7.73;5.43;;;;;;;;;;746342;186;899090;-64
2022/10/06 01:58:04;;;;;;;7.13;5.60;;;;;;;;;;742836;187;918302;-65
2022/10/06 02:00:30;;;;;;;7.70;5.90;;;;;;;;;;748942;187;919047;-70
2022/10/06 02:02:56;;;;;;;10.57;6.57;;;;;;;;;;744338;187;918808;-65
2022/10/06 02:05:21;;;;;;;9.00;5.20;;;;;;;;;;743076;186;918467;-70
2022/10/06 02:07:47;;;;;;;5.90;4.67;;;;;;;;;;745140;187;919299;-70
2022/10/06 02:10:13;;;;;;;7.30;5.27;;;;;;;;;;742545;187;929262;-65
2022/10/06 02:12:39;;;;;;;8.17;4.67;;;;;;;;;;741536;187;919208;-64
2022/10/06 02:15:06;;;;;;;9.20;5.40;;;;;;;;;;747179;185;920662;-65
2022/10/06 02:17:31;;;;;;;9.50;5.40;;;;;;;;;;752588;186;917684;-70
2022/10/06 02:19:57;;;;;;;8.83;4.23;;;;;;;;;;741769;187;919041;-64
2022/10/06 02:22:23;;;;;;;5.97;3.50;;;;;;;;;;742240;185;922395;-69
2022/10/06 02:24:49;;;;;;;6.30;4.00;;;;;;;;;;751278;184;916969;-65
2022/10/06 02:27:15;;;;;;;6.50;4.37;;;;;;;;;;745479;185;919010;-70
2022/10/06 02:29:41;;;;;;;6.40;4.83;;;;;;;;;;745333;187;920842;-64
2022/10/06 02:32:06;;;;;;;5.50;4.00;;;;;;;;;;747133;187;924543;-63
2022/10/06 02:34:32;;;;;;;7.13;4.07;;;;;;;;;;742455;187;918562;-64
2022/10/06 02:36:59;;;;;;;8.23;4.50;;;;;;;;;;744351;187;903365;-64
2022/10/06 02:39:25;;;;;;;9.88;4.87;;;;;;;;;;746714;187;918880;-69
2022/10/06 02:41:51;;;;;;;7.67;4.57;;;;;;;;;;750954;187;915484;-64
2022/10/06 02:44:17;;;;;;;7.23;4.77;;;;;;;;;;740471;187;923186;-70
2022/10/06 02:46:43;;;;;;;6.70;4.50;;;;;;;;;;742465;187;920301;-69
2022/10/06 02:49:09;;;;;;;6.70;4.20;;;;;;;;;;747425;187;918836;-70
2022/10/06 02:51:35;;;;;;;6.40;4.50;;;;;;;;;;743278;184;918473;-64
2022/10/06 02:54:00;;;;;;;7.40;5.03;;;;;;;;;;744441;187;918811;-65
2022/10/06 02:56:26;;;;;;;10.23;5.90;;;;;;;;;;748592;187;819326;-65
2022/10/06 02:58:52;;;;;;;9.40;5.83;;;;;;;;;;743755;184;919093;-69
2022/10/06 03:01:21;;;;;;;11.50;6.17;;;;;;;;;;742553;187;922727;-69
2022/10/06 03:03:47;;;;;;;11.90;6.83;;;;;;;;;;742310;187;918746;-69
2022/10/06 03:08:44;;;;;;;11.70;7.30;;;;;;;;;;744252;187;917956;-69
2022/10/06 03:11:12;;;;;;;13.53;7.67;;;;;;;;;;743398;187;917917;-69
2022/10/06 03:13:36;;;;;;;10.90;8.37;;;;;;;;;;749983;187;816599;-70
2022/10/06 03:16:02;;;;;;;9.60;7.40;;;;;;;;;;743793;187;918728;-71
2022/10/06 03:18:29;;;;;;;8.50;5.97;;;;;;;;;;745745;187;923934;-70
2022/10/06 03:20:53;;;;;;;12.03;5.87;;;;;;;;;;745892;187;908807;-70
2022/10/06 03:23:19;;;;;;;8.63;5.67;;;;;;;;;;746409;186;918208;-70
2022/10/06 03:25:45;;;;;;;8.40;5.87;;;;;;;;;;740899;187;920362;-65
2022/10/06 03:28:11;;;;;;;7.10;5.37;;;;;;;;;;742117;184;918112;-68
2022/10/06 03:30:37;;;;;;;12.87;6.60;;;;;;;;;;748540;186;783482;-69
2022/10/06 03:33:03;;;;;;;7.70;4.93;;;;;;;;;;742430;187;918399;-65
2022/10/06 03:35:29;;;;;;;8.23;6.37;;;;;;;;;;742770;187;1019657;-69
2022/10/06 03:37:54;;;;;;;10.13;6.60;;;;;;;;;;748672;187;917194;-70
2022/10/06 03:40:20;;;;;;;9.90;5.97;;;;;;;;;;744364;187;917032;-70
2022/10/06 03:42:46;;;;;;;10.47;6.60;;;;;;;;;;744591;187;761703;-66
2022/10/06 03:45:12;;;;;;;8.93;5.30;;;;;;;;;;747220;185;912358;-70
2022/10/06 03:47:38;;;;;;;14.10;7.63;;;;;;;;;;741233;186;915155;-70
2022/10/06 03:50:04;;;;;;;9.57;5.60;;;;;;;;;;741125;185;921129;-69
2022/10/06 03:52:30;;;;;;;11.33;6.50;;;;;;;;;;740427;186;918472;-66
2022/10/06 03:54:55;;;;;;;12.50;7.10;;;;;;;;;;744696;186;921514;-69
2022/10/06 03:57:21;;;;;;;10.03;7.67;;;;;;;;;;741988;184;925679;-69
2022/10/06 03:59:47;;;;;;;7.93;6.03;;;;;;;;;;742424;186;816746;-69
2022/10/06 04:02:13;;;;;;;12.40;7.07;;;;;;;;;;746921;187;918716;-69
2022/10/06 04:04:39;;;;;;;9.37;6.63;;;;;;;;;;746639;185;816299;-65
2022/10/06 04:07:05;;;;;;;11.30;7.03;;;;;;;;;;745202;185;756714;-69
2022/10/06 04:09:30;;;;;;;8.30;5.57;;;;;;;;;;745090;185;917509;-65
2022/10/06 04:11:56;;;;;;;7.87;4.93;;;;;;;;;;742321;187;918761;-70
2022/10/06 04:14:22;;;;;;;8.00;5.00;;;;;;;;;;741835;186;914210;-70
2022/10/06 04:16:48;;;;;;;8.23;4.97;;;;;;;;;;743453;186;811745;-65
2022/10/06 04:19:14;;;;;;;8.13;4.57;;;;;;;;;;761345;182;638123;-70
2022/10/06 04:21:40;;;;;;;10.13;5.00;;;;;;;;;;748767;187;633556;-69
2022/10/06 04:24:06;;;;;;;5.97;4.40;;;;;;;;;;749944;184;840959;-69
2022/10/06 04:26:31;;;;;;;13.67;5.17;;;;;;;;;;746323;187;717081;-69
2022/10/06 04:28:57;;;;;;;8.70;5.33;;;;;;;;;;746283;187;816173;-68
2022/10/06 04:31:24;;;;;;;7.73;6.33;;;;;;;;;;744541;186;918343;-66
2022/10/06 04:33:50;;;;;;;8.05;5.50;;;;;;;;;;748393;186;917937;-69
2022/10/06 04:36:16;;;;;;;10.63;5.70;;;;;;;;;;744586;186;918624;-67
2022/10/06 04:38:42;;;;;;;9.73;5.97;;;;;;;;;;740178;187;918860;-66
2022/10/06 04:41:10;;;;;;;10.77;5.97;;;;;;;;;;744665;187;919395;-68
2022/10/06 04:43:36;;;;;;;9.90;6.93;;;;;;;;;;745749;185;813606;-67
2022/10/06 04:46:02;;;;;;;9.80;6.63;;;;;;;;;;741662;186;882149;-69
2022/10/06 04:48:28;;;;;;;8.40;5.87;;;;;;;;;;741073;186;807746;-66
2022/10/06 04:50:53;;;;;;;8.13;6.03;;;;;;;;;;746416;187;918267;-69
2022/10/06 04:53:19;;;;;;;11.60;6.07;;;;;;;;;;742543;186;935719;-65
2022/10/06 04:55:45;;;;;;;7.87;5.97;;;;;;;;;;742933;187;921185;-66
2022/10/06 04:58:11;;;;;;;10.63;6.63;;;;;;;;;;747000;187;914656;-69
2022/10/06 05:00:37;;;;;;;8.60;6.13;;;;;;;;;;740583;187;921193;-65
2022/10/06 05:03:03;;;;;;;7.03;6.03;;;;;;;;;;741961;186;915634;-66
2022/10/06 05:05:29;;;;;;;9.35;6.68;;;;;;;;;;743625;186;918069;-68
2022/10/06 05:07:55;;;;;;;8.63;6.07;;;;;;;;;;743901;186;917409;-66
2022/10/06 05:10:21;;;;;;;7.50;5.90;;;;;;;;;;742901;186;918493;-68
2022/10/06 05:12:47;;;;;;;8.80;5.90;;;;;;;;;;740481;187;1014204;-66
2022/10/06 05:15:14;;;;;;;9.77;5.60;;;;;;;;;;748491;186;919020;-66
2022/10/06 05:17:38;;;;;;;10.63;7.53;;;;;;;;;;745057;186;917753;-70
2022/10/06 05:20:05;;;;;;;8.37;5.40;;;;;;;;;;743841;186;918647;-69
2022/10/06 05:22:30;;;;;;;8.63;6.20;;;;;;;;;;745416;186;919009;-69
2022/10/06 05:24:56;;;;;;;8.97;6.40;;;;;;;;;;740739;187;918931;-65
2022/10/06 05:27:22;;;;;;;8.30;6.20;;;;;;;;;;741608;186;865802;-66
2022/10/06 05:29:48;;;;;;;7.93;5.17;;;;;;;;;;748219;186;918112;-69
2022/10/06 05:32:14;;;;;;;9.70;5.33;;;;;;;;;;743868;186;915549;-67
2022/10/06 05:34:40;;;;;;;7.50;5.30;;;;;;;;;;741879;187;935442;-68
2022/10/06 05:37:06;;;;;;;12.43;6.00;;;;;;;;;;742189;187;920570;-66
2022/10/06 05:39:31;;;;;;;6.20;5.07;;;;;;;;;;750749;187;818714;-66
2022/10/06 05:41:58;;;;;;;8.00;5.30;;;;;;;;;;744615;186;919980;-69
2022/10/06 05:44:23;;;;;;;8.43;5.80;;;;;;;;;;744974;185;918017;-65
2022/10/06 05:46:50;;;;;;;7.67;5.60;;;;;;;;;;749665;187;806224;-66
2022/10/06 05:49:16;;;;;;;9.30;5.47;;;;;;;;;;743031;186;917295;-65
2022/10/06 05:51:42;;;;;;;6.43;4.40;;;;;;;;;;741040;186;916161;-66
2022/10/06 05:54:08;;;;;;;7.25;5.10;;;;;;;;;;746844;185;874448;-66
2022/10/06 05:56:34;;;;;;;9.00;5.23;;;;;;;;;;742767;187;921969;-68
2022/10/06 05:58:59;;;;;;;8.60;6.37;;;;;;;;;;743045;186;915794;-66
2022/10/06 06:01:27;;;;;;;9.43;5.90;;;;;;;;;;742166;186;915992;-68
2022/10/06 06:03:53;;;;;;;11.30;6.33;;;;;;;;;;749322;187;916106;-69
2022/10/06 06:06:20;;;;;;;8.17;5.83;;;;;;;;;;743422;187;948061;-66
2022/10/06 06:08:47;;;;;;;9.47;6.83;;;;;;;;;;744837;185;917932;-68
2022/10/06 06:11:13;;;;;;;10.63;6.60;;;;;;;;;;746982;187;918946;-69
2022/10/06 06:13:39;;;;;;;12.57;7.40;;;;;;;;;;743105;185;816357;-68
2022/10/06 06:16:05;;;;;;;8.63;6.37;;;;;;;;;;742787;186;918784;-64
2022/10/06 06:18:31;;;;;;;10.30;7.40;;;;;;;;;;746797;186;918936;-68
2022/10/06 06:20:57;;;;;;;17.23;7.70;;;;;;;;;;744866;185;919454;-66
2022/10/06 06:23:23;;;;;;;17.60;8.83;;;;;;;;;;742409;185;917795;-66
2022/10/06 06:25:55;;;;;;;10.38;6.95;;;;;;;;;;743039;185;919265;-68
2022/10/06 06:28:21;;;;;;;11.90;8.37;;;;;;;;;;748582;187;817350;-65
2022/10/06 06:30:46;;;;;;;10.73;7.30;;;;;;;;;;743515;186;918197;-68
2022/10/06 06:33:12;;;;;;;11.17;7.50;;;;;;;;;;743491;187;922489;-66
2022/10/06 06:35:39;;;;;;;11.98;7.65;;;;;;;;;;746373;186;841419;-70
2022/10/06 06:38:05;;;;;;;12.80;8.00;;;;;;;;;;751873;184;923293;-69
2022/10/06 06:40:30;;;;;;;8.13;6.13;;;;;;;;;;746828;185;917677;-66
2022/10/06 06:42:56;;;;;;;10.53;6.97;;;;;;;;;;743412;186;919550;-70
2022/10/06 06:45:22;;;;;;;15.60;7.70;;;;;;;;;;747530;187;918627;-66
2022/10/06 06:47:49;;;;;;;13.30;7.33;;;;;;;;;;744701;186;821251;-70
2022/10/06 06:50:16;;;;;;;10.20;6.43;;;;;;;;;;744533;184;817780;-70
2022/10/06 06:52:42;;;;;;;15.20;8.13;;;;;;;;;;749976;185;915204;-65
2022/10/06 06:55:06;;;;;;;11.30;7.47;;;;;;;;;;744564;186;918797;-70
2022/10/06 06:57:31;;;;;;;9.63;6.33;;;;;;;;;;743709;186;915296;-71
2022/10/06 07:00:01;;;;;;;9.70;7.40;;;;;;;;;;747771;187;911592;-70
2022/10/06 07:02:25;;;;;;;8.67;6.10;;;;;;;;;;740556;186;927314;-70
2022/10/06 07:04:49;;;;;;;11.93;8.10;;;;;;;;;;741243;187;919122;-65
2022/10/06 07:07:15;;;;;;;8.88;6.15;;;;;;;;;;741409;187;918622;-66
2022/10/06 07:09:41;;;;;;;8.13;6.77;;;;;;;;;;749723;187;918988;-72
2022/10/06 07:12:10;;;;;;;9.70;6.70;;;;;;;;;;744607;187;919012;-71
2022/10/06 07:14:32;;;;;;;7.85;7.05;;;;;;;;;;741892;186;923189;-66
2022/10/06 07:27:06;;;;;;;7.47;5.13;;;;;;;;;;744997;187;816716;-71
2022/10/06 07:29:32;;;;;;;9.10;6.20;;;;;;;;;;749047;187;918419;-64
2022/10/06 07:31:58;;;;;;;13.73;5.20;;;;;;;;;;742715;186;917775;-71
2022/10/06 07:34:24;;;;;;;11.80;7.13;;;;;;;;;;742352;187;918206;-72
2022/10/06 07:36:52;;;;;;;6.80;5.00;;;;;;;;;;747154;187;918437;-72
2022/10/06 07:39:15;;;;;;;8.13;5.80;;;;;;;;;;743426;186;886493;-71
2022/10/06 07:41:41;;;;;;;7.07;5.10;;;;;;;;;;743121;186;919074;-72
2022/10/06 07:44:07;;;;;;;9.60;5.60;;;;;;;;;;747416;185;820826;-72
2022/10/06 07:46:33;;;;;;;9.83;7.13;;;;;;;;;;740099;187;918313;-65
2022/10/06 07:48:59;;;;;;;13.03;5.77;;;;;;;;;;743228;187;918464;-71
2022/10/06 07:51:26;;;;;;;15.60;5.62;;;;;;;;;;739837;185;918247;-65
2022/10/06 07:53:50;;;;;;;8.30;5.93;;;;;;;;;;750970;186;916382;-64
2022/10/06 07:56:19;;;;;;;11.13;5.87;;;;;;;;;;743365;186;918950;-63
2022/10/06 07:58:43;;;;;;;9.33;5.63;;;;;;;;;;741835;186;921763;-71
2022/10/06 08:01:08;;;;;;;9.30;6.10;;;;;;;;;;747069;187;921320;-65
2022/10/06 08:03:34;;;;;;;6.87;5.40;;;;;;;;;;746109;184;918769;-71
2022/10/06 08:06:00;;;;;;;8.33;6.03;;;;;;;;;;743207;186;918992;-64
2022/10/06 08:08:26;;;;;;;8.93;5.53;;;;;;;;;;748275;187;915964;-71
2022/10/06 08:10:52;;;;;;;11.73;5.63;;;;;;;;;;741848;187;915576;-71
2022/10/06 08:13:18;;;;;;;11.43;6.60;;;;;;;;;;743201;185;915018;-71
2022/10/06 08:15:44;;;;;;;8.93;5.30;;;;;;;;;;744166;187;919033;-65
2022/10/06 08:18:10;;;;;;;10.03;6.00;;;;;;;;;;747880;184;711473;-65
2022/10/06 08:20:35;;;;;;;13.90;6.03;;;;;;;;;;742779;187;828859;-71
2022/10/06 08:23:05;;;;;;;7.13;5.00;;;;;;;;;;747046;187;630329;-65
2022/10/06 08:25:27;;;;;;;16.60;5.70;;;;;;;;;;750359;185;795361;-66
2022/10/06 08:27:53;;;;;;;7.70;5.50;;;;;;;;;;746872;187;877001;-70
2022/10/06 08:30:19;;;;;;;9.33;6.03;;;;;;;;;;744244;186;771295;-71
2022/10/06 08:32:46;;;;;;;10.30;6.23;;;;;;;;;;746940;187;918925;-64
2022/10/06 08:35:10;;;;;;;9.23;5.40;;;;;;;;;;747939;186;625280;-65
2022/10/06 08:37:36;;;;;;;7.37;6.07;;;;;;;;;;743105;185;906526;-71
2022/10/06 08:40:02;;;;;;;13.17;5.30;;;;;;;;;;745956;187;916200;-65
2022/10/06 08:42:36;;;;;;;8.10;6.37;;;;;;;;;;740577;186;954457;-63
2022/10/06 08:45:02;;;;;;;9.40;5.83;;;;;;;;;;742266;187;918260;-70
2022/10/06 08:47:28;;;;;;;10.38;5.95;;;;;;;;;;741856;187;938702;-64
2022/10/06 08:49:54;;;;;;;9.90;5.93;;;;;;;;;;747073;187;896824;-71
2022/10/06 08:52:35;;;;;;;11.80;6.63;;;;;;;;;;746164;185;918164;-72
2022/10/06 08:55:17;;;;;;;12.40;5.97;;;;;;;;;;742044;185;915247;-71
2022/10/06 08:57:48;;;;;;;14.53;6.70;;;;;;;;;;744543;186;918971;-71
2022/10/06 09:00:14;;;;;;;13.83;6.33;;;;;;;;;;742047;186;918515;-64
2022/10/06 09:02:42;;;;;;;16.20;6.93;;;;;;;;;;743453;185;910148;-64
2022/10/06 09:05:08;;;;;;;18.93;6.47;;;;;;;;;;751794;186;913916;-64
2022/10/06 09:07:37;;;;;;;8.37;6.57;;;;;;;;;;743093;185;919623;-70
2022/10/06 09:10:19;;;;;;;14.00;6.90;;;;;;;;;;741839;187;919305;-63
2022/10/06 09:12:46;;;;;;;7.90;6.75;;;;;;;;;;737227;187;921777;-72
2022/10/06 09:15:18;;;;;;;10.30;6.45;;;;;;;;;;747857;184;916249;-70
2022/10/06 09:17:47;;;;;;;7.70;6.20;;;;;;;;;;751569;186;915250;-72
2022/10/06 09:20:19;;;;;;;10.27;5.70;;;;;;;;;;742504;186;914747;-73
2022/10/06 09:22:39;;;;;;;10.00;6.50;;;;;;;;;;741712;186;919112;-72
2022/10/06 09:25:13;;;;;;;8.27;6.00;;;;;;;;;;749609;186;817961;-62
2022/10/06 09:27:39;;;;;;;9.55;6.43;;;;;;;;;;749871;184;918570;-64
2022/10/06 09:30:07;;;;;;;9.93;5.83;;;;;;;;;;740391;185;909569;-62
2022/10/06 09:32:32;;;;;;;8.93;6.63;;;;;;;;;;742400;187;816948;-63
2022/10/06 09:34:59;;;;;;;12.90;6.80;;;;;;;;;;749571;187;912513;-72
2022/10/06 09:37:25;;;;;;;9.83;7.10;;;;;;;;;;742776;187;919209;-65
2022/10/06 09:39:51;;;;;;;10.33;6.80;;;;;;;;;;747078;187;819732;-71
2022/10/06 09:42:20;;;;;;;12.90;7.45;;;;;;;;;;742840;185;919702;-63
2022/10/06 09:45:00;;;;;;;14.07;6.67;;;;;;;;;;746760;188;891787;-72
2022/10/06 09:47:31;;;;;;;11.50;8.23;;;;;;;;;;752630;186;918000;-70
2022/10/06 09:50:03;;;;;;;12.00;7.40;;;;;;;;;;739644;186;918450;-71
2022/10/06 09:52:28;;;;;;;9.77;7.70;;;;;;;;;;740764;187;919469;-71
2022/10/06 09:55:00;;;;;;;12.23;7.10;;;;;;;;;;741248;185;933799;-63
2022/10/06 09:57:26;;;;;;;13.70;8.80;;;;;;;;;;747815;187;919412;-69
2022/10/06 09:59:52;;;;;;;10.77;8.03;;;;;;;;;;740303;187;947400;-61
2022/10/06 10:02:20;;;;;;;11.07;7.10;;;;;;;;;;740662;186;918829;-70
2022/10/06 10:04:46;;;;;;;9.93;7.90;;;;;;;;;;747491;187;919007;-70
2022/10/06 10:07:13;;;;;;;11.67;8.17;;;;;;;;;;746349;187;818429;-70
2022/10/06 10:09:40;;;;;;;14.27;7.83;;;;;;;;;;744031;186;918549;-61
2022/10/06 10:14:47;;;;;;;12.20;8.57;;;;;;;;;;744874;186;865186;-62
2022/10/06 10:17:12;;;;;;;11.17;8.50;;;;;;;;;;750356;186;820713;-71
2022/10/06 10:19:42;;;;;;;12.80;7.67;;;;;;;;;;744422;187;918918;-71
2022/10/06 10:22:04;;;;;;;13.07;7.17;;;;;;;;;;741351;187;917863;-61
2022/10/06 10:24:30;;;;;;;10.60;7.23;;;;;;;;;;748878;187;919211;-71
2022/10/06 10:26:56;;;;;;;17.33;8.47;;;;;;;;;;747315;184;919451;-62
2022/10/06 10:29:29;;;;;;;10.90;7.50;;;;;;;;;;740546;187;907395;-71
2022/10/06 10:32:01;;;;;;;12.90;7.60;;;;;;;;;;744968;187;816539;-70
2022/10/06 10:34:28;;;;;;;10.60;6.87;;;;;;;;;;742886;188;949153;-62
2022/10/06 10:36:55;;;;;;;11.33;6.20;;;;;;;;;;739714;187;911546;-72
2022/10/06 10:39:22;;;;;;;18.03;6.90;;;;;;;;;;739959;187;919891;-72
2022/10/06 10:41:48;;;;;;;7.73;6.60;;;;;;;;;;744858;186;918249;-71
2022/10/06 10:44:14;;;;;;;9.97;6.30;;;;;;;;;;749331;187;915567;-72
2022/10/06 10:46:42;;;;;;;6.40;5.30;;;;;;;;;;742436;187;918577;-71
2022/10/06 10:49:30;;;;;;;7.60;6.03;;;;;;;;;;742626;187;919197;-62
2022/10/06 10:51:56;;;;;;;7.13;6.13;;;;;;;;;;742557;187;918377;-71
2022/10/06 10:54:38;;;;;;;8.18;5.75;;;;;;;;;;743900;186;919242;-61
2022/10/06 10:57:05;;;;;;;8.27;5.70;;;;;;;;;;743181;184;919146;-71
2022/10/06 10:59:31;;;;;;;11.90;6.23;;;;;;;;;;746741;186;923951;-72
2022/10/06 11:01:59;;;;;;;13.10;6.80;;;;;;;;;;739273;187;918181;-63
2022/10/06 11:04:25;;;;;;;11.77;6.40;;;;;;;;;;740549;187;928107;-63
2022/10/06 11:06:55;;;;;;;7.87;6.40;;;;;;;;;;746458;187;816566;-72
2022/10/06 11:09:25;;;;;;;10.93;5.70;;;;;;;;;;744551;186;919801;-62
2022/10/06 11:11:54;;;;;;;7.73;6.00;;;;;;;;;;742395;186;873854;-62
2022/10/06 11:14:23;;;;;;;9.07;5.30;;;;;;;;;;741776;187;919250;-72
2022/10/06 11:16:50;;;;;;;6.60;5.00;;;;;;;;;;748083;187;928685;-63
2022/10/06 11:19:15;;;;;;;10.47;5.40;;;;;;;;;;744579;186;920530;-62
2022/10/06 11:21:41;;;;;;;8.40;5.70;;;;;;;;;;744073;187;918647;-62
2022/10/06 11:24:14;;;;;;;10.23;5.70;;;;;;;;;;743607;187;916678;-71
2022/10/06 11:26:50;;;;;;;28.80;8.27;;;;;;;;;;751222;185;919048;-61
2022/10/06 11:29:24;;;;;;;9.10;5.93;;;;;;;;;;746588;185;920126;-63
2022/10/06 11:32:04;;;;;;;10.83;5.63;;;;;;;;;;746539;185;890756;-62
2022/10/06 11:34:30;;;;;;;9.07;5.60;;;;;;;;;;745136;187;918156;-73
2022/10/06 11:37:01;;;;;;;10.63;5.67;;;;;;;;;;744513;187;918361;-73
2022/10/06 11:39:30;;;;;;;8.82;6.00;;;;;;;;;;745058;186;919042;-72
2022/10/06 11:41:56;;;;;;;6.60;4.90;;;;;;;;;;744443;185;902999;-62
2022/10/06 11:44:22;;;;;;;6.83;5.87;;;;;;;;;;746614;186;817460;-67
2022/10/06 11:46:48;;;;;;;6.60;5.10;;;;;;;;;;743243;186;919461;-72
2022/10/06 11:49:20;;;;;;;6.13;4.83;;;;;;;;;;747816;184;919770;-71
2022/10/06 11:51:45;;;;;;;10.73;5.60;;;;;;;;;;743600;185;918857;-73
2022/10/06 11:54:31;;;;;;;6.40;4.50;;;;;;;;;;745105;185;916441;-72
2022/10/06 11:56:57;;;;;;;8.37;4.97;;;;;;;;;;738533;186;951344;-73
2022/10/06 11:59:23;;;;;;;6.03;4.73;;;;;;;;;;741703;187;907520;-73
2022/10/06 12:01:49;;;;;;;7.17;4.70;;;;;;;;;;748577;185;912323;-73
2022/10/06 12:04:14;;;;;;;5.97;4.60;;;;;;;;;;743000;187;929121;-73
2022/10/06 12:06:51;;;;;;;7.60;5.67;;;;;;;;;;742778;185;919305;-63
2022/10/06 12:09:22;;;;;;;8.27;5.00;;;;;;;;;;741548;187;919592;-62
2022/10/06 12:11:49;;;;;;;6.93;5.43;;;;;;;;;;747539;186;918381;-74
2022/10/06 12:14:14;;;;;;;9.00;4.30;;;;;;;;;;743320;186;919067;-72
2022/10/06 12:16:40;;;;;;;7.40;4.80;;;;;;;;;;740545;185;927783;-62
2022/10/06 12:19:06;;;;;;;7.70;4.23;;;;;;;;;;748103;187;815418;-73
2022/10/06 12:21:32;;;;;;;5.47;4.33;;;;;;;;;;741824;186;918987;-62
2022/10/06 12:23:59;;;;;;;7.03;5.20;;;;;;;;;;738146;187;918439;-62
2022/10/06 12:26:27;;;;;;;10.13;6.13;;;;;;;;;;740276;185;921592;-61
2022/10/06 12:29:08;;;;;;;8.70;5.90;;;;;;;;;;746867;187;820435;-63
2022/10/06 12:31:41;;;;;;;7.20;5.20;;;;;;;;;;750213;186;917974;-62
2022/10/06 12:34:23;;;;;;;8.57;5.60;;;;;;;;;;744823;185;918628;-63
2022/10/06 12:36:49;;;;;;;13.30;5.33;;;;;;;;;;746327;185;912508;-62
2022/10/06 12:39:19;;;;;;;9.10;5.03;;;;;;;;;;744763;185;917928;-62
2022/10/06 12:41:51;;;;;;;17.00;5.73;;;;;;;;;;744803;186;918640;-63
2022/10/06 12:44:20;;;;;;;10.40;5.80;;;;;;;;;;747454;186;921094;-72
2022/10/06 12:46:46;;;;;;;12.10;5.20;;;;;;;;;;745905;186;917765;-63
2022/10/06 12:49:17;;;;;;;12.97;5.43;;;;;;;;;;744614;184;918709;-73
2022/10/06 12:51:43;;;;;;;9.40;5.87;;;;;;;;;;740133;185;918953;-73
2022/10/06 12:54:18;;;;;;;6.63;4.63;;;;;;;;;;748177;187;919627;-63
2022/10/06 12:56:40;;;;;;;6.97;5.03;;;;;;;;;;738931;187;904356;-73
2022/10/06 12:59:12;;;;;;;11.83;5.70;;;;;;;;;;742163;184;918313;-73
2022/10/06 13:01:37;;;;;;;8.53;5.37;;;;;;;;;;740839;186;922500;-72
2022/10/06 13:04:03;;;;;;;10.63;7.30;;;;;;;;;;748829;187;818909;-63
2022/10/06 13:06:29;;;;;;;7.00;4.30;;;;;;;;;;744667;187;916717;-73
2022/10/06 13:09:01;;;;;;;5.77;4.90;;;;;;;;;;743894;186;915488;-63
2022/10/06 13:11:27;;;;;;;9.67;4.90;;;;;;;;;;742621;187;916287;-64
2022/10/06 13:13:53;;;;;;;6.43;4.63;;;;;;;;;;747311;186;916743;-64
2022/10/06 13:16:35;;;;;;;6.33;4.17;;;;;;;;;;742101;186;913857;-63
2022/10/06 13:19:00;;;;;;;8.00;4.13;;;;;;;;;;741155;187;886820;-64
2022/10/06 13:21:26;;;;;;;8.77;5.60;;;;;;;;;;740783;185;915369;-64
2022/10/06 13:23:52;;;;;;;10.03;5.27;;;;;;;;;;745729;187;917198;-64
2022/10/06 13:26:17;;;;;;;9.13;4.70;;;;;;;;;;741515;186;915758;-74
2022/10/06 13:28:44;;;;;;;7.40;4.93;;;;;;;;;;740960;185;918214;-64
2022/10/06 13:31:11;;;;;;;7.77;4.73;;;;;;;;;;747101;187;891753;-63
2022/10/06 13:33:37;;;;;;;10.63;4.40;;;;;;;;;;746484;185;918142;-73
2022/10/06 13:36:02;;;;;;;15.10;4.93;;;;;;;;;;743358;185;922240;-73
2022/10/06 13:38:33;;;;;;;5.80;3.50;;;;;;;;;;741680;187;919393;-72
2022/10/06 13:41:00;;;;;;;7.77;4.17;;;;;;;;;;739831;187;918686;-71
2022/10/06 13:43:26;;;;;;;7.17;4.13;;;;;;;;;;742487;184;918910;-72
2022/10/06 13:45:52;;;;;;;4.53;3.70;;;;;;;;;;741741;185;919022;-72
2022/10/06 13:48:18;;;;;;;10.13;4.10;;;;;;;;;;747109;186;920561;-71
2022/10/06 13:50:44;;;;;;;5.73;3.67;;;;;;;;;;743770;186;921909;-64
2022/10/06 13:53:16;;;;;;;10.83;3.73;;;;;;;;;;742024;186;920556;-65
2022/10/06 13:55:41;;;;;;;7.03;3.23;;;;;;;;;;743207;186;919290;-70
2022/10/06 13:58:08;;;;;;;6.53;3.20;;;;;;;;;;745944;187;912004;-72
2022/10/06 14:00:33;;;;;;;6.70;3.87;;;;;;;;;;742435;185;919149;-65
2022/10/06 14:03:07;;;;;;;3.80;3.10;;;;;;;;;;740467;187;932138;-71
2022/10/06 14:05:38;;;;;;;8.67;3.33;;;;;;;;;;743389;187;920212;-71
2022/10/06 14:08:22;;;;;;;7.80;3.07;;;;;;;;;;747649;185;919184;-72
2022/10/06 14:10:47;;;;;;;5.70;2.63;;;;;;;;;;752198;186;773393;-64
2022/10/06 14:13:21;;;;;;;6.33;2.90;;;;;;;;;;744706;187;914798;-63
2022/10/06 14:15:48;;;;;;;6.03;2.80;;;;;;;;;;742289;187;894297;-73
2022/10/06 14:18:17;;;;;;;4.37;2.50;;;;;;;;;;742761;187;877481;-72
2022/10/06 14:20:44;;;;;;;4.23;2.50;;;;;;;;;;749499;186;917937;-63
2022/10/06 14:23:15;;;;;;;4.50;2.67;;;;;;;;;;742187;186;1532632;-74
2022/10/06 14:25:40;;;;;;;8.33;3.83;;;;;;;;;;742294;187;922184;-64
2022/10/06 14:28:06;;;;;;;3.33;2.33;;;;;;;;;;740742;187;913350;-74
2022/10/06 14:30:32;;;;;;;4.10;2.73;;;;;;;;;;745765;187;916348;-64
2022/10/06 14:32:58;;;;;;;6.50;3.17;;;;;;;;;;742338;187;915207;-72
2022/10/06 14:35:24;;;;;;;4.97;3.20;;;;;;;;;;743529;187;918797;-64
2022/10/06 14:37:50;;;;;;;8.40;3.27;;;;;;;;;;748359;187;916208;-65
2022/10/06 14:40:15;;;;;;;7.00;3.67;;;;;;;;;;743188;187;818389;-74